logo
Search for airport 
image banner adimage banner adimage banner ad
image banner ad

HKBC - Black Marlin

Located in Msambweni, Kenya

ICAO - , IATA -

Data provided by Airmate  

General information

Coordinates: S4°30'8" E39°28'3"
Elevation is 15 feet MSL.
Magnetic variation is -1° East
View others Airports in Coast Province

Operational data

Special qualification required
Current time UTC:
Current local time:
Weather at : HKMO - Mombasa Moi Intl ( 55 km )
METAR: HKMO 241900Z 20006KT 9999 FEW023 24/20 Q1016 NOSIG
TAF: TAF HKMO 241700Z 2418/2524 18005KT 9999 FEW023 BECMG 2500/2503 24005KT FEW020 TEMPO 2504/2505 -RA SCT020 BKN080 BECMG 2509/2512 NSW 19015KT SCT025 BECMG 2521/2524 21005KT FEW020
View NOTAMs / SUP AIP / TFR affecting this airport [VIEW]
Communications frequencies: [VIEW]

Runways:

RWY identifierQFULength (ft)Width (ft)SurfaceLDA (ft)
0600UNK
2400UNK
1200UNK
3000UNK

Airport contact information

Address: Msambweni Kenya

Satellite view of HKBC